Time;durP1;ratioP1;P1;durP2;ratioP2;P2;SDS_P1;SDS_P2;PMS_P1;PMS_P2;Temp;Humidity;BMP_temperature;BMP_pressure;BME280_temperature;BME280_humidity;BME280_pressure;Samples;Min_cycle;Max_cycle;Signal;HPM_P1;HPM_P2
2022/12/24 00:01:31;;;;;;;0.37;0.37;;;2.40;99.90;;;;;;4999079;28;20219;-81
2022/12/24 00:03:57;;;;;;;0.27;0.27;;;2.30;99.90;;;;;;5006678;28;20478;-81
2022/12/24 00:06:23;;;;;;;0.30;0.30;;;2.20;99.90;;;;;;5004575;28;20188;-81
2022/12/24 00:08:50;;;;;;;0.30;0.30;;;2.10;99.90;;;;;;4991155;28;20220;-81
2022/12/24 00:11:16;;;;;;;0.40;0.40;;;2.20;99.90;;;;;;4996839;28;20459;-81
2022/12/24 00:13:41;;;;;;;0.40;0.40;;;2.20;99.90;;;;;;5010010;28;20998;-81
2022/12/24 00:16:07;;;;;;;0.33;0.33;;;2.20;99.90;;;;;;5011088;28;20228;-82
2022/12/24 00:18:32;;;;;;;0.40;0.40;;;2.30;99.90;;;;;;5011326;28;20640;-81
2022/12/24 00:20:58;;;;;;;0.40;0.40;;;2.30;99.90;;;;;;5008027;28;20192;-81
2022/12/24 00:23:24;;;;;;;0.40;0.40;;;2.20;99.90;;;;;;5004186;28;20671;-81
2022/12/24 00:25:49;;;;;;;0.40;0.40;;;2.20;99.90;;;;;;5010725;28;20203;-81
2022/12/24 00:28:15;;;;;;;0.40;0.40;;;2.20;99.90;;;;;;5009463;28;20723;-81
2022/12/24 00:30:42;;;;;;;0.30;0.30;;;2.30;99.90;;;;;;5008642;28;20183;-81
2022/12/24 00:33:07;;;;;;;0.30;0.30;;;2.20;99.90;;;;;;5010275;28;20483;-81
2022/12/24 00:35:34;;;;;;;0.30;0.30;;;2.20;99.90;;;;;;5007998;28;20869;-82
2022/12/24 00:38:00;;;;;;;0.37;0.37;;;2.20;99.90;;;;;;5002806;28;20825;-82
2022/12/24 00:40:25;;;;;;;0.30;0.30;;;2.30;99.90;;;;;;5008219;28;20447;-81
2022/12/24 00:42:51;;;;;;;0.37;0.37;;;2.30;99.90;;;;;;5007765;28;20212;-81
2022/12/24 00:45:16;;;;;;;0.27;0.27;;;2.20;99.90;;;;;;5007153;28;20180;-82
2022/12/24 00:47:42;;;;;;;0.40;0.40;;;2.20;99.90;;;;;;5008995;28;20212;-82
2022/12/24 00:50:08;;;;;;;0.40;0.40;;;2.30;99.90;;;;;;5007643;28;20686;-82
2022/12/24 00:52:34;;;;;;;0.30;0.30;;;2.40;99.90;;;;;;5006928;28;20559;-81
2022/12/24 00:54:59;;;;;;;0.40;0.40;;;2.50;99.90;;;;;;5003654;28;20436;-81
2022/12/24 00:57:25;;;;;;;0.30;0.30;;;2.50;99.90;;;;;;4993226;28;20422;-81
2022/12/24 00:59:50;;;;;;;0.30;0.30;;;2.40;99.90;;;;;;4989880;28;20184;-82
2022/12/24 01:02:16;;;;;;;0.40;0.40;;;2.50;99.90;;;;;;5000386;28;20188;-81
2022/12/24 01:07:25;;;;;;;0.30;0.30;;;2.40;99.90;;;;;;5007629;28;20265;-81
2022/12/24 01:09:51;;;;;;;0.40;0.40;;;2.40;99.90;;;;;;5006729;28;20451;-81
2022/12/24 01:12:16;;;;;;;0.30;0.30;;;2.40;99.90;;;;;;5009363;28;20220;-81
2022/12/24 01:14:42;;;;;;;0.30;0.30;;;2.40;99.90;;;;;;5006761;28;20628;-81
2022/12/24 01:17:07;;;;;;;0.40;0.40;;;2.50;99.90;;;;;;5009189;28;20229;-81
2022/12/24 01:19:33;;;;;;;0.37;0.37;;;2.50;99.90;;;;;;5005799;28;20203;-81
2022/12/24 01:21:58;;;;;;;0.30;0.30;;;2.50;99.90;;;;;;5009091;28;20667;-81
2022/12/24 01:24:24;;;;;;;0.30;0.30;;;2.40;99.90;;;;;;5003213;28;20684;-81
2022/12/24 01:26:51;;;;;;;0.30;0.30;;;2.30;99.90;;;;;;5004838;28;20192;-81
2022/12/24 01:29:16;;;;;;;0.40;0.40;;;2.50;99.90;;;;;;5009911;28;20215;-81
2022/12/24 01:31:42;;;;;;;0.40;0.40;;;2.50;99.90;;;;;;5002679;28;20445;-81
2022/12/24 01:34:07;;;;;;;0.40;0.40;;;2.40;99.90;;;;;;5001904;28;20207;-81
2022/12/24 01:36:34;;;;;;;0.30;0.30;;;2.40;99.90;;;;;;5003533;28;20206;-81
2022/12/24 01:39:00;;;;;;;0.40;0.40;;;2.40;99.90;;;;;;5006458;28;20200;-81
2022/12/24 01:44:31;;;;;;;0.40;0.40;;;2.40;99.90;;;;;;5006049;28;20620;-81
2022/12/24 01:47:09;;;;;;;0.30;0.30;;;2.40;99.90;;;;;;5003340;28;20507;-81
2022/12/24 01:49:38;;;;;;;0.40;0.40;;;2.30;99.90;;;;;;4995494;28;20785;-81
2022/12/24 01:52:11;;;;;;;0.30;0.30;;;2.30;99.90;;;;;;5005857;28;20501;-81
2022/12/24 01:54:46;;;;;;;0.40;0.40;;;2.30;99.90;;;;;;5008282;28;20547;-81
2022/12/24 01:57:22;;;;;;;0.30;0.30;;;2.20;99.90;;;;;;5005033;28;20446;-82
2022/12/24 01:59:52;;;;;;;0.20;0.20;;;2.20;99.90;;;;;;5008367;28;20449;-81
2022/12/24 02:02:18;;;;;;;0.30;0.30;;;2.20;99.90;;;;;;5005006;28;20426;-82
2022/12/24 02:05:03;;;;;;;0.30;0.30;;;2.10;99.90;;;;;;5007056;28;20446;-82
2022/12/24 02:07:28;;;;;;;0.30;0.30;;;2.20;99.90;;;;;;5006955;28;20467;-82
2022/12/24 02:09:56;;;;;;;0.40;0.40;;;2.10;99.90;;;;;;5005575;28;20454;-82
2022/12/24 02:12:23;;;;;;;0.30;0.30;;;2.10;99.90;;;;;;5004224;28;20254;-81
2022/12/24 02:14:48;;;;;;;0.30;0.30;;;2.10;99.90;;;;;;5008367;28;20467;-81
2022/12/24 02:17:33;;;;;;;0.40;0.40;;;2.00;99.90;;;;;;4996709;28;20477;-81
2022/12/24 02:20:16;;;;;;;0.40;0.40;;;2.00;99.90;;;;;;5007767;28;20203;-81
2022/12/24 02:23:10;;;;;;;0.40;0.40;;;2.10;99.90;;;;;;5009549;28;20423;-82
2022/12/24 02:26:03;;;;;;;0.30;0.30;;;2.10;99.90;;;;;;5008046;28;20462;-82
2022/12/24 02:28:31;;;;;;;0.40;0.40;;;2.10;99.90;;;;;;5009107;28;20482;-82
2022/12/24 02:31:11;;;;;;;0.40;0.40;;;2.10;99.90;;;;;;4998915;28;20428;-81
2022/12/24 02:34:03;;;;;;;0.30;0.30;;;2.10;99.90;;;;;;5005304;28;20961;-82
2022/12/24 02:36:38;;;;;;;0.30;0.30;;;2.20;99.90;;;;;;5003714;28;22315;-81
2022/12/24 02:39:09;;;;;;;0.40;0.40;;;2.10;99.90;;;;;;5001003;28;20849;-82
2022/12/24 02:44:27;;;;;;;0.30;0.30;;;2.10;99.90;;;;;;5012771;28;20473;-82
2022/12/24 02:46:54;;;;;;;0.40;0.40;;;2.10;99.90;;;;;;5011227;28;20927;-82
2022/12/24 02:49:20;;;;;;;0.30;0.30;;;2.00;99.90;;;;;;5011285;28;20646;-82
2022/12/24 02:51:46;;;;;;;0.30;0.30;;;2.10;99.90;;;;;;5012857;28;20419;-82
2022/12/24 02:54:13;;;;;;;0.40;0.40;;;2.00;99.90;;;;;;5009877;28;20185;-82
2022/12/24 02:57:11;;;;;;;0.30;0.30;;;2.10;99.90;;;;;;5010284;28;20837;-82
2022/12/24 03:00:03;;;;;;;0.30;0.30;;;2.10;99.90;;;;;;5011152;28;20450;-82
2022/12/24 03:02:57;;;;;;;0.23;0.23;;;2.00;99.90;;;;;;5012676;28;20436;-81
2022/12/24 03:05:45;;;;;;;0.30;0.30;;;2.00;99.90;;;;;;5011844;28;20443;-82
2022/12/24 03:08:32;;;;;;;0.33;0.33;;;2.10;99.90;;;;;;5012270;28;20501;-82
2022/12/24 03:11:17;;;;;;;0.30;0.30;;;2.10;99.90;;;;;;5010467;28;20834;-82
2022/12/24 03:13:43;;;;;;;0.40;0.40;;;2.10;99.90;;;;;;4993189;28;20428;-81
2022/12/24 03:16:15;;;;;;;0.30;0.30;;;2.10;99.90;;;;;;5010541;28;20483;-82
2022/12/24 03:18:44;;;;;;;0.40;0.40;;;2.10;99.90;;;;;;5011150;28;20546;-82
2022/12/24 03:21:33;;;;;;;0.30;0.30;;;2.10;99.90;;;;;;5009762;28;20974;-82
2022/12/24 03:23:58;;;;;;;0.30;0.30;;;2.20;99.90;;;;;;5012065;28;20458;-83
2022/12/24 03:26:27;;;;;;;0.30;0.30;;;2.20;99.90;;;;;;5011929;28;20560;-82
2022/12/24 03:28:53;;;;;;;0.30;0.30;;;2.20;99.90;;;;;;5010951;28;20220;-82
2022/12/24 03:31:18;;;;;;;0.30;0.30;;;2.20;99.90;;;;;;5010273;28;20459;-82
2022/12/24 03:33:45;;;;;;;0.30;0.30;;;2.20;99.90;;;;;;5009725;28;20207;-82
2022/12/24 03:36:10;;;;;;;0.30;0.30;;;2.20;99.90;;;;;;5012091;28;20204;-82
2022/12/24 03:38:36;;;;;;;0.20;0.20;;;2.20;99.90;;;;;;5004777;28;20521;-82
2022/12/24 03:41:02;;;;;;;0.37;0.37;;;2.30;99.90;;;;;;5009338;28;20539;-81
2022/12/24 03:43:28;;;;;;;0.30;0.30;;;2.30;99.90;;;;;;5009193;28;20193;-81
2022/12/24 03:45:53;;;;;;;0.30;0.30;;;2.30;99.90;;;;;;5011293;28;20455;-81
2022/12/24 03:48:19;;;;;;;0.40;0.40;;;2.30;99.90;;;;;;5009530;28;20220;-82
2022/12/24 03:50:44;;;;;;;0.30;0.30;;;2.40;99.90;;;;;;5010189;28;20188;-81
2022/12/24 03:53:10;;;;;;;0.40;0.40;;;2.40;99.90;;;;;;5008688;28;20199;-82
2022/12/24 03:55:37;;;;;;;0.40;0.40;;;2.40;99.90;;;;;;5007934;28;20181;-82
2022/12/24 03:58:03;;;;;;;0.40;0.40;;;2.50;99.90;;;;;;4999563;28;20643;-82
2022/12/24 04:00:28;;;;;;;0.30;0.30;;;2.50;99.90;;;;;;5008389;28;20439;-82
2022/12/24 04:02:54;;;;;;;0.33;0.33;;;2.50;99.90;;;;;;5008915;28;20783;-81
2022/12/24 04:05:19;;;;;;;0.40;0.40;;;2.60;99.90;;;;;;4991256;28;20693;-82
2022/12/24 04:07:46;;;;;;;0.40;0.40;;;2.50;99.90;;;;;;5007732;28;20273;-82
2022/12/24 04:10:13;;;;;;;0.40;0.40;;;2.60;99.90;;;;;;5009941;28;20188;-82
2022/12/24 04:12:39;;;;;;;0.33;0.33;;;2.60;99.90;;;;;;5009846;28;20435;-82
2022/12/24 04:15:05;;;;;;;0.30;0.30;;;2.60;99.90;;;;;;5010958;28;20478;-82
2022/12/24 04:17:31;;;;;;;0.30;0.30;;;2.60;99.90;;;;;;5010454;28;20188;-81
2022/12/24 04:19:57;;;;;;;0.37;0.37;;;2.60;99.90;;;;;;5006496;28;20458;-82
2022/12/24 04:22:22;;;;;;;0.37;0.37;;;2.70;99.90;;;;;;5011515;28;20514;-81
2022/12/24 04:24:48;;;;;;;0.40;0.40;;;2.70;99.90;;;;;;5011189;28;20843;-82
2022/12/24 04:27:14;;;;;;;0.30;0.30;;;2.70;99.90;;;;;;5005253;28;20184;-82
2022/12/24 04:29:40;;;;;;;0.30;0.30;;;2.70;99.90;;;;;;5002523;28;20193;-82
2022/12/24 04:32:05;;;;;;;0.30;0.30;;;2.70;99.90;;;;;;4999059;28;20427;-82
2022/12/24 04:34:31;;;;;;;0.30;0.30;;;2.70;99.90;;;;;;5007572;28;20675;-82
2022/12/24 04:36:56;;;;;;;0.40;0.40;;;2.70;99.90;;;;;;5007408;28;20767;-82
2022/12/24 04:39:22;;;;;;;0.40;0.40;;;2.70;99.90;;;;;;5009139;28;20196;-82
2022/12/24 04:41:47;;;;;;;0.30;0.30;;;2.70;99.90;;;;;;5010116;28;20181;-82
2022/12/24 04:44:13;;;;;;;0.30;0.30;;;2.80;99.90;;;;;;5010119;28;20195;-82
2022/12/24 04:46:39;;;;;;;0.30;0.30;;;2.70;99.90;;;;;;5010906;28;20177;-82
2022/12/24 04:49:05;;;;;;;0.30;0.30;;;2.70;99.90;;;;;;5006919;28;20220;-82
2022/12/24 04:51:31;;;;;;;0.30;0.30;;;2.80;99.90;;;;;;5004172;28;20447;-82
2022/12/24 04:53:57;;;;;;;0.40;0.40;;;2.80;99.90;;;;;;5009283;28;20192;-82
2022/12/24 04:56:25;;;;;;;0.40;0.40;;;2.80;99.90;;;;;;5004866;28;20601;-82
2022/12/24 04:58:51;;;;;;;0.30;0.30;;;2.80;99.90;;;;;;5007712;28;20451;-82
2022/12/24 05:01:20;;;;;;;0.30;0.30;;;2.90;99.90;;;;;;5007703;28;21876;-82
2022/12/24 05:03:46;;;;;;;0.30;0.30;;;2.80;99.90;;;;;;5009384;28;21095;-82
2022/12/24 05:06:15;;;;;;;0.30;0.30;;;2.90;99.90;;;;;;5010306;28;20439;-82
2022/12/24 05:08:42;;;;;;;0.30;0.30;;;2.90;99.90;;;;;;5010537;28;20483;-82
2022/12/24 05:11:08;;;;;;;0.30;0.30;;;2.90;99.90;;;;;;5009339;28;20443;-82
2022/12/24 05:13:34;;;;;;;0.30;0.30;;;2.90;99.90;;;;;;5009297;28;20981;-82
2022/12/24 05:16:00;;;;;;;0.40;0.40;;;2.90;99.90;;;;;;5009564;28;20471;-82
2022/12/24 05:18:26;;;;;;;0.30;0.30;;;2.90;99.90;;;;;;5009652;28;20196;-82
2022/12/24 05:20:51;;;;;;;0.40;0.40;;;2.90;99.90;;;;;;5006360;28;20216;-81
2022/12/24 05:26:20;;;;;;;0.40;0.40;;;2.90;99.90;;;;;;4990804;28;20613;-81
2022/12/24 05:28:50;;;;;;;0.30;0.30;;;2.90;99.90;;;;;;4996870;28;20470;-81
2022/12/24 05:31:16;;;;;;;0.30;0.30;;;2.90;99.90;;;;;;5009978;28;20419;-81
2022/12/24 05:33:41;;;;;;;0.20;0.20;;;2.90;99.90;;;;;;5008504;28;20970;-81
2022/12/24 05:36:08;;;;;;;0.30;0.30;;;2.90;99.90;;;;;;5008527;28;20467;-82
2022/12/24 05:38:33;;;;;;;0.30;0.30;;;2.90;99.90;;;;;;5006711;28;20191;-82
2022/12/24 05:40:59;;;;;;;0.30;0.30;;;2.90;99.90;;;;;;5005671;28;20439;-82
2022/12/24 05:43:24;;;;;;;0.30;0.30;;;2.90;99.90;;;;;;5001337;28;20212;-82
2022/12/24 05:45:50;;;;;;;0.30;0.30;;;2.90;99.90;;;;;;5006166;28;20254;-81
2022/12/24 05:48:15;;;;;;;0.30;0.30;;;2.90;99.90;;;;;;4996633;28;20688;-81
2022/12/24 05:50:41;;;;;;;0.30;0.30;;;2.90;99.90;;;;;;5002528;28;20263;-82
2022/12/24 05:53:07;;;;;;;0.20;0.20;;;2.90;99.90;;;;;;4998572;28;20239;-82
2022/12/24 05:55:33;;;;;;;0.30;0.30;;;2.90;99.90;;;;;;5001881;28;20530;-81
2022/12/24 05:57:59;;;;;;;0.30;0.30;;;2.90;99.90;;;;;;5002122;28;20212;-82
2022/12/24 06:00:25;;;;;;;0.33;0.33;;;2.90;99.90;;;;;;5003682;28;20463;-82
2022/12/24 06:02:50;;;;;;;0.40;0.40;;;2.90;99.90;;;;;;5001844;28;20564;-82
2022/12/24 06:05:16;;;;;;;0.30;0.30;;;2.90;99.90;;;;;;5006064;28;20185;-82
2022/12/24 06:07:41;;;;;;;0.30;0.30;;;2.80;99.90;;;;;;5009769;28;20831;-82
2022/12/24 06:10:08;;;;;;;0.30;0.30;;;2.90;99.90;;;;;;5007956;28;20195;-81
2022/12/24 06:12:34;;;;;;;0.30;0.30;;;2.80;99.90;;;;;;5006527;28;20200;-82
2022/12/24 06:14:59;;;;;;;0.30;0.30;;;2.90;99.90;;;;;;5008015;28;20466;-82
2022/12/24 06:17:25;;;;;;;0.30;0.30;;;2.90;99.90;;;;;;5012252;28;20200;-82
2022/12/24 06:19:50;;;;;;;0.40;0.40;;;2.90;99.90;;;;;;5010045;28;20188;-82
2022/12/24 06:22:16;;;;;;;0.30;0.30;;;2.90;99.90;;;;;;5013167;28;20204;-82
2022/12/24 06:24:41;;;;;;;0.30;0.30;;;2.90;99.90;;;;;;5009406;28;20187;-81
2022/12/24 06:27:07;;;;;;;0.30;0.30;;;2.90;99.90;;;;;;5009490;28;20192;-82
2022/12/24 06:29:32;;;;;;;0.30;0.30;;;2.80;99.90;;;;;;5013418;28;20659;-82
2022/12/24 06:31:58;;;;;;;0.30;0.30;;;2.80;99.90;;;;;;5008482;28;20192;-81
2022/12/24 06:34:24;;;;;;;0.30;0.30;;;2.80;99.90;;;;;;5006259;28;20679;-79
2022/12/24 06:36:49;;;;;;;0.30;0.30;;;2.80;99.90;;;;;;5003294;28;20192;-79
2022/12/24 06:39:15;;;;;;;0.30;0.30;;;2.80;99.90;;;;;;5009246;28;20224;-80
2022/12/24 06:41:40;;;;;;;0.30;0.30;;;2.90;99.90;;;;;;5001605;28;20280;-80
2022/12/24 06:44:05;;;;;;;0.30;0.30;;;2.90;99.90;;;;;;5009728;28;20198;-78
2022/12/24 06:46:31;;;;;;;0.30;0.30;;;2.90;99.90;;;;;;5011323;28;20195;-79
2022/12/24 06:48:56;;;;;;;0.30;0.30;;;2.90;99.90;;;;;;5008479;28;20227;-79
2022/12/24 06:51:22;;;;;;;0.30;0.30;;;2.90;99.90;;;;;;5009114;28;20180;-78
2022/12/24 06:53:51;;;;;;;0.30;0.30;;;2.80;99.90;;;;;;5008447;28;20774;-79
2022/12/24 06:56:18;;;;;;;0.30;0.30;;;2.80;99.90;;;;;;5007573;28;20192;-79
2022/12/24 06:58:44;;;;;;;0.30;0.30;;;2.90;99.90;;;;;;5009244;28;20509;-79
2022/12/24 07:01:13;;;;;;;0.40;0.40;;;2.80;99.90;;;;;;5010905;28;20474;-80
2022/12/24 07:03:39;;;;;;;0.30;0.30;;;2.90;99.90;;;;;;5005140;28;20195;-79
2022/12/24 07:06:05;;;;;;;0.30;0.30;;;2.80;99.90;;;;;;5003327;28;20482;-78
2022/12/24 07:08:35;;;;;;;0.33;0.33;;;2.90;99.90;;;;;;5001258;28;20510;-78
2022/12/24 07:11:01;;;;;;;0.30;0.30;;;2.90;99.90;;;;;;5010141;28;20447;-78
2022/12/24 07:13:28;;;;;;;0.37;0.37;;;2.80;99.90;;;;;;4995699;28;20561;-79
2022/12/24 07:16:04;;;;;;;0.30;0.30;;;2.80;99.90;;;;;;5003098;28;20481;-77
2022/12/24 07:18:30;;;;;;;0.30;0.30;;;2.80;99.90;;;;;;4999319;28;20510;-78
2022/12/24 07:20:56;;;;;;;0.30;0.30;;;2.80;99.90;;;;;;5002535;28;20908;-78
2022/12/24 07:23:22;;;;;;;0.27;0.27;;;2.70;99.90;;;;;;5004348;28;21382;-78
2022/12/24 07:25:47;;;;;;;0.30;0.30;;;2.70;99.90;;;;;;5004774;28;20542;-77
2022/12/24 07:28:13;;;;;;;0.30;0.30;;;2.70;99.90;;;;;;5003252;28;20297;-77
2022/12/24 07:30:39;;;;;;;0.40;0.40;;;2.70;99.90;;;;;;5005108;28;20204;-78
2022/12/24 07:33:05;;;;;;;0.40;0.40;;;2.70;99.90;;;;;;5003668;28;20196;-79
2022/12/24 07:35:30;;;;;;;0.30;0.30;;;2.70;99.90;;;;;;5001098;28;20506;-79
2022/12/24 07:37:56;;;;;;;0.30;0.30;;;2.70;99.90;;;;;;4998397;28;20606;-79
2022/12/24 07:40:21;;;;;;;0.40;0.40;;;2.70;99.90;;;;;;5010274;28;20271;-78
2022/12/24 07:42:47;;;;;;;0.30;0.30;;;2.70;99.90;;;;;;5009241;28;20309;-78
2022/12/24 07:45:12;;;;;;;0.40;0.40;;;2.70;99.90;;;;;;5009810;28;20196;-77
2022/12/24 07:47:38;;;;;;;0.40;0.40;;;2.70;99.90;;;;;;5008143;28;20247;-78
2022/12/24 07:50:04;;;;;;;0.30;0.30;;;2.80;99.90;;;;;;5005840;28;20231;-78
2022/12/24 07:52:30;;;;;;;0.30;0.30;;;2.70;99.90;;;;;;5004799;28;20291;-78
2022/12/24 07:54:56;;;;;;;0.30;0.30;;;2.80;99.90;;;;;;5010990;28;21077;-78
2022/12/24 07:57:21;;;;;;;0.30;0.30;;;2.70;99.90;;;;;;5008674;28;20443;-77
2022/12/24 07:59:47;;;;;;;0.30;0.30;;;2.80;99.90;;;;;;5008247;28;20196;-77
2022/12/24 08:02:13;;;;;;;0.30;0.30;;;2.80;99.90;;;;;;5008046;28;20231;-77
2022/12/24 08:04:38;;;;;;;0.40;0.40;;;2.90;99.90;;;;;;5007047;28;20275;-78
2022/12/24 08:07:05;;;;;;;0.40;0.40;;;2.90;99.90;;;;;;5001116;28;20259;-78
2022/12/24 08:09:35;;;;;;;0.23;0.23;;;3.00;99.90;;;;;;5001261;28;20224;-77
2022/12/24 08:12:02;;;;;;;0.30;0.30;;;3.00;99.90;;;;;;4996062;28;20952;-78
2022/12/24 08:14:28;;;;;;;0.40;0.40;;;3.00;99.90;;;;;;5008110;28;20524;-78
2022/12/24 08:16:54;;;;;;;0.30;0.30;;;3.00;99.90;;;;;;4998705;28;20792;-78
2022/12/24 08:19:20;;;;;;;0.40;0.40;;;3.00;99.90;;;;;;5006533;28;20459;-78
2022/12/24 08:21:45;;;;;;;0.30;0.30;;;2.90;99.90;;;;;;5005954;28;20196;-78
2022/12/24 08:24:11;;;;;;;0.30;0.30;;;3.00;99.90;;;;;;5005524;28;20184;-78
2022/12/24 08:26:36;;;;;;;0.30;0.30;;;3.00;99.90;;;;;;4999709;28;20585;-78
2022/12/24 08:29:03;;;;;;;0.40;0.40;;;3.00;99.90;;;;;;5009615;28;20212;-78
2022/12/24 08:31:29;;;;;;;0.30;0.30;;;3.00;99.90;;;;;;5007226;28;20275;-78
2022/12/24 08:33:54;;;;;;;0.37;0.37;;;3.00;99.90;;;;;;5008888;28;20876;-78
2022/12/24 08:36:20;;;;;;;0.30;0.30;;;3.00;99.90;;;;;;5008573;28;20192;-78
2022/12/24 08:38:45;;;;;;;0.30;0.30;;;3.10;99.90;;;;;;5009113;28;20200;-78
2022/12/24 08:41:11;;;;;;;0.30;0.30;;;3.10;99.90;;;;;;5009497;28;20188;-79
2022/12/24 08:43:36;;;;;;;0.40;0.40;;;3.10;99.90;;;;;;5009705;28;20590;-78
2022/12/24 08:46:04;;;;;;;0.37;0.37;;;3.00;99.90;;;;;;5007865;28;20239;-77
2022/12/24 08:48:30;;;;;;;0.30;0.30;;;3.10;99.90;;;;;;5008574;28;20594;-79
2022/12/24 08:50:56;;;;;;;0.23;0.23;;;3.10;99.90;;;;;;5009277;28;20450;-79
2022/12/24 08:53:21;;;;;;;0.30;0.30;;;3.10;99.90;;;;;;5003186;28;20611;-78
2022/12/24 08:55:47;;;;;;;0.30;0.30;;;3.10;99.90;;;;;;5005910;28;20188;-78
2022/12/24 08:58:13;;;;;;;0.30;0.30;;;3.10;99.90;;;;;;5004423;28;20188;-78
2022/12/24 09:00:38;;;;;;;0.30;0.30;;;3.10;99.90;;;;;;5009692;28;20435;-79
2022/12/24 09:03:04;;;;;;;0.40;0.40;;;3.20;99.90;;;;;;5006073;28;20212;-78
2022/12/24 09:05:30;;;;;;;0.30;0.30;;;3.10;99.90;;;;;;5004890;28;20223;-78
2022/12/24 09:07:55;;;;;;;0.40;0.40;;;3.10;99.90;;;;;;5009214;28;20228;-78
2022/12/24 09:10:21;;;;;;;0.30;0.30;;;3.10;99.90;;;;;;5003393;28;20206;-78
2022/12/24 09:12:47;;;;;;;0.30;0.30;;;3.20;99.90;;;;;;5010923;28;20226;-78
2022/12/24 09:15:13;;;;;;;0.37;0.37;;;3.20;99.90;;;;;;5006080;28;20475;-78
2022/12/24 09:17:38;;;;;;;0.30;0.30;;;3.20;99.90;;;;;;5009345;28;20586;-79
2022/12/24 09:20:05;;;;;;;0.30;0.30;;;3.20;99.90;;;;;;5007574;28;20443;-78
2022/12/24 09:22:33;;;;;;;0.30;0.30;;;3.30;99.90;;;;;;5008478;28;20188;-78
2022/12/24 09:24:59;;;;;;;0.30;0.30;;;3.20;99.90;;;;;;5007187;28;20451;-76
2022/12/24 09:27:25;;;;;;;0.40;0.40;;;3.30;99.90;;;;;;5007977;28;20439;-77
2022/12/24 09:29:50;;;;;;;0.30;0.30;;;3.30;99.90;;;;;;5006100;28;20197;-76
2022/12/24 09:32:16;;;;;;;0.30;0.30;;;3.30;99.90;;;;;;5006254;28;20566;-77
2022/12/24 09:34:41;;;;;;;0.30;0.30;;;3.30;99.90;;;;;;4999774;28;20207;-77
2022/12/24 09:37:07;;;;;;;0.50;0.50;;;3.30;99.90;;;;;;5006742;28;20181;-78
2022/12/24 09:39:32;;;;;;;0.40;0.40;;;3.40;99.90;;;;;;5001537;28;20184;-76
2022/12/24 09:42:26;;;;;;;0.40;0.40;;;3.50;99.90;;;;;;5011146;28;20715;-76
2022/12/24 09:45:18;;;;;;;0.30;0.30;;;3.50;99.90;;;;;;5012604;28;20207;-77
2022/12/24 09:47:49;;;;;;;0.20;0.20;;;3.50;99.90;;;;;;5013735;28;20475;-76
2022/12/24 09:50:38;;;;;;;0.30;0.30;;;3.50;99.90;;;;;;5010535;28;20443;-77
2022/12/24 09:53:16;;;;;;;0.30;0.30;;;3.40;99.90;;;;;;5011185;28;20930;-76
2022/12/24 09:55:47;;;;;;;0.30;0.30;;;3.40;99.90;;;;;;4996746;28;20443;-76
2022/12/24 09:58:39;;;;;;;0.30;0.30;;;3.50;99.90;;;;;;5011336;28;20942;-77
2022/12/24 10:01:04;;;;;;;0.30;0.30;;;3.50;99.90;;;;;;5025647;28;20470;-77
2022/12/24 10:03:31;;;;;;;0.30;0.30;;;3.50;99.90;;;;;;5004140;28;20534;-76
2022/12/24 10:06:15;;;;;;;0.30;0.30;;;3.50;99.90;;;;;;5010508;28;20199;-77
2022/12/24 10:08:47;;;;;;;0.30;0.30;;;3.50;99.90;;;;;;5010609;28;21090;-76
2022/12/24 10:11:30;;;;;;;0.30;0.30;;;3.50;99.90;;;;;;5002248;28;21151;-76
2022/12/24 10:14:21;;;;;;;0.30;0.30;;;3.50;99.90;;;;;;5010518;28;20446;-77
2022/12/24 10:16:53;;;;;;;0.27;0.27;;;3.50;99.90;;;;;;5008311;28;20536;-77
2022/12/24 10:19:40;;;;;;;0.30;0.30;;;3.50;99.90;;;;;;5012182;28;20439;-77
2022/12/24 10:22:23;;;;;;;0.27;0.27;;;3.50;99.90;;;;;;5009587;28;20458;-77
2022/12/24 10:25:01;;;;;;;0.30;0.30;;;3.60;99.90;;;;;;5012692;28;20934;-76
2022/12/24 10:27:37;;;;;;;0.30;0.30;;;3.60;99.90;;;;;;5013025;28;20423;-76
2022/12/24 10:30:17;;;;;;;0.30;0.30;;;3.60;99.90;;;;;;5012091;28;20545;-77
2022/12/24 10:32:44;;;;;;;0.30;0.30;;;3.60;99.90;;;;;;5007776;28;20435;-76
2022/12/24 10:35:15;;;;;;;0.30;0.30;;;3.60;99.90;;;;;;5006002;28;20517;-76
2022/12/24 10:37:46;;;;;;;0.30;0.30;;;3.60;99.90;;;;;;5009206;28;20481;-77
2022/12/24 10:40:34;;;;;;;0.30;0.30;;;3.60;99.90;;;;;;5011103;28;20438;-76
2022/12/24 10:43:00;;;;;;;0.30;0.30;;;3.60;99.90;;;;;;5011891;28;20442;-76
2022/12/24 10:45:35;;;;;;;0.30;0.30;;;3.60;99.90;;;;;;5007399;28;20459;-76
2022/12/24 10:48:08;;;;;;;0.30;0.30;;;3.60;99.90;;;;;;5003194;28;20530;-76
2022/12/24 10:50:42;;;;;;;0.20;0.20;;;3.60;99.90;;;;;;5008835;28;20482;-76
2022/12/24 10:53:22;;;;;;;0.30;0.30;;;3.60;99.90;;;;;;5010448;28;20423;-76
2022/12/24 10:55:48;;;;;;;0.30;0.30;;;3.60;99.90;;;;;;5007653;28;20546;-76
2022/12/24 10:58:19;;;;;;;0.30;0.30;;;3.70;99.90;;;;;;5008766;28;20543;-77
2022/12/24 11:00:50;;;;;;;0.30;0.30;;;3.70;99.90;;;;;;5011054;28;20743;-77
2022/12/24 11:03:42;;;;;;;0.40;0.40;;;3.80;99.90;;;;;;5010862;28;20451;-76
2022/12/24 11:06:19;;;;;;;0.30;0.30;;;3.70;99.90;;;;;;5003255;28;20503;-75
2022/12/24 11:08:46;;;;;;;0.30;0.30;;;3.70;99.90;;;;;;5009116;28;20490;-75
2022/12/24 11:11:18;;;;;;;0.30;0.30;;;3.70;99.90;;;;;;5007792;28;20931;-74
2022/12/24 11:13:51;;;;;;;0.30;0.30;;;3.80;99.90;;;;;;5003108;28;20501;-75
2022/12/24 11:16:22;;;;;;;0.30;0.30;;;3.80;99.90;;;;;;5003324;28;20474;-75
2022/12/24 11:18:51;;;;;;;0.30;0.30;;;3.80;99.90;;;;;;5011534;28;20530;-75
2022/12/24 11:21:26;;;;;;;0.30;0.30;;;3.90;99.90;;;;;;5008321;28;20451;-75
2022/12/24 11:23:58;;;;;;;0.20;0.20;;;3.90;99.90;;;;;;5007288;28;20490;-77
2022/12/24 11:26:26;;;;;;;0.30;0.30;;;3.80;99.90;;;;;;5010814;28;21007;-77
2022/12/24 11:29:13;;;;;;;0.30;0.30;;;3.80;99.90;;;;;;5007270;28;20897;-76
2022/12/24 11:31:39;;;;;;;0.30;0.30;;;3.90;99.90;;;;;;5003138;28;20439;-75
2022/12/24 11:34:25;;;;;;;0.30;0.30;;;3.90;99.90;;;;;;5004893;28;20597;-75
2022/12/24 11:36:52;;;;;;;0.30;0.30;;;3.90;99.90;;;;;;5007383;28;20444;-75
2022/12/24 11:39:21;;;;;;;0.20;0.20;;;3.90;99.90;;;;;;5002717;28;20461;-77
2022/12/24 11:41:47;;;;;;;0.20;0.20;;;4.00;99.90;;;;;;5004795;28;20986;-76
2022/12/24 11:44:13;;;;;;;0.30;0.30;;;4.00;99.90;;;;;;4999726;28;20435;-75
2022/12/24 11:46:42;;;;;;;0.20;0.20;;;4.00;99.90;;;;;;5003523;28;20458;-75
2022/12/24 11:49:10;;;;;;;0.30;0.30;;;4.10;99.90;;;;;;5005528;28;20680;-75
2022/12/24 11:51:36;;;;;;;0.30;0.30;;;4.10;99.90;;;;;;5007264;28;20486;-75
2022/12/24 11:54:37;;;;;;;0.30;0.30;;;4.10;99.90;;;;;;5010949;28;20509;-77
2022/12/24 11:57:04;;;;;;;0.30;0.30;;;4.10;99.90;;;;;;4996937;28;21253;-73
2022/12/24 11:59:38;;;;;;;0.20;0.20;;;4.10;99.90;;;;;;5020308;28;20447;-75
2022/12/24 12:02:33;;;;;;;0.27;0.27;;;4.10;99.90;;;;;;5002552;28;20619;-75
2022/12/24 12:05:03;;;;;;;0.30;0.30;;;4.10;99.90;;;;;;4995893;28;20443;-76
2022/12/24 12:07:37;;;;;;;0.20;0.20;;;4.20;99.90;;;;;;5008911;28;20955;-75
2022/12/24 12:10:16;;;;;;;0.20;0.20;;;4.10;99.90;;;;;;5010211;28;20458;-75
2022/12/24 12:12:46;;;;;;;0.20;0.20;;;4.10;99.90;;;;;;4996298;28;20440;-75
2022/12/24 12:15:16;;;;;;;0.30;0.30;;;4.10;99.90;;;;;;5003072;28;20703;-75
2022/12/24 12:17:58;;;;;;;0.30;0.30;;;4.00;99.90;;;;;;5003126;28;20444;-75
2022/12/24 12:20:34;;;;;;;0.30;0.30;;;4.00;99.90;;;;;;5000568;28;20448;-75
2022/12/24 12:23:10;;;;;;;0.30;0.30;;;4.00;99.90;;;;;;4994287;28;20766;-75
2022/12/24 12:25:54;;;;;;;0.30;0.30;;;3.90;99.90;;;;;;5006774;28;20442;-75
2022/12/24 12:28:41;;;;;;;0.30;0.30;;;3.90;99.90;;;;;;5007808;28;20487;-75
2022/12/24 12:31:18;;;;;;;0.40;0.40;;;3.90;99.90;;;;;;5008404;28;20447;-75
2022/12/24 12:33:48;;;;;;;0.30;0.30;;;3.90;99.90;;;;;;5005088;28;20443;-75
2022/12/24 12:36:19;;;;;;;0.30;0.30;;;3.90;99.90;;;;;;5009797;28;20459;-75
2022/12/24 12:38:45;;;;;;;0.30;0.30;;;3.90;99.90;;;;;;5009950;28;20532;-75
2022/12/24 12:41:22;;;;;;;0.30;0.30;;;3.90;99.90;;;;;;5006386;28;20950;-75
2022/12/24 12:44:05;;;;;;;0.40;0.40;;;4.00;99.90;;;;;;5008587;28;20192;-75
2022/12/24 12:46:39;;;;;;;0.30;0.30;;;4.00;99.90;;;;;;5007120;28;20443;-75
2022/12/24 12:49:23;;;;;;;0.30;0.30;;;4.00;99.90;;;;;;4995351;28;20577;-78
2022/12/24 12:52:08;;;;;;;0.30;0.30;;;3.90;99.90;;;;;;5008053;28;20447;-78
2022/12/24 12:54:51;;;;;;;0.40;0.40;;;3.90;99.90;;;;;;5010148;28;20438;-75
2022/12/24 12:57:22;;;;;;;0.30;0.30;;;3.90;99.90;;;;;;5007825;28;20423;-75
2022/12/24 13:00:06;;;;;;;0.40;0.40;;;3.90;99.90;;;;;;4990161;28;20527;-75
2022/12/24 13:03:08;;;;;;;0.30;0.30;;;3.90;99.90;;;;;;5000733;28;20990;-75
2022/12/24 13:06:01;;;;;;;0.30;0.30;;;3.90;99.90;;;;;;4997457;28;20446;-75
2022/12/24 13:08:42;;;;;;;0.40;0.40;;;3.90;99.90;;;;;;5002566;28;20477;-75
2022/12/24 13:11:48;;;;;;;0.30;0.30;;;3.90;99.90;;;;;;5002470;28;20458;-75
2022/12/24 13:17:07;;;;;;;0.30;0.30;;;3.90;99.90;;;;;;5101695;27;20542;-75
2022/12/24 13:19:49;;;;;;;0.30;0.30;;;3.90;99.90;;;;;;5073904;28;20458;-75
2022/12/24 13:22:17;;;;;;;0.30;0.30;;;3.90;99.90;;;;;;5083738;28;20447;-77
2022/12/24 13:24:51;;;;;;;0.20;0.20;;;3.90;99.90;;;;;;5077709;28;20433;-78
2022/12/24 13:27:23;;;;;;;0.30;0.30;;;3.90;99.90;;;;;;5075078;28;20462;-76